sensor_id;sensor_type;location;lat;lon;timestamp;P1;durP1;ratioP1;P2;durP2;ratioP2
2049;SDS011;8478;49.208;8.806;2022-09-09T00:04:26;2.83;;;1.87;;
2049;SDS011;8478;49.208;8.806;2022-09-09T00:09:28;1.70;;;1.50;;
2049;SDS011;8478;49.208;8.806;2022-09-09T00:12:04;2.07;;;1.60;;
2049;SDS011;8478;49.208;8.806;2022-09-09T00:14:56;1.53;;;1.43;;
2049;SDS011;8478;49.208;8.806;2022-09-09T00:17:32;1.97;;;1.47;;
2049;SDS011;8478;49.208;8.806;2022-09-09T00:22:44;9.60;;;2.53;;
2049;SDS011;8478;49.208;8.806;2022-09-09T00:25:19;2.30;;;1.50;;
2049;SDS011;8478;49.208;8.806;2022-09-09T00:28:09;3.33;;;1.77;;
2049;SDS011;8478;49.208;8.806;2022-09-09T00:30:43;2.20;;;1.67;;
2049;SDS011;8478;49.208;8.806;2022-09-09T00:33:12;2.70;;;1.50;;
2049;SDS011;8478;49.208;8.806;2022-09-09T00:35:50;2.77;;;1.60;;
2049;SDS011;8478;49.208;8.806;2022-09-09T00:41:05;2.30;;;2.10;;
2049;SDS011;8478;49.208;8.806;2022-09-09T00:43:36;3.33;;;2.07;;
2049;SDS011;8478;49.208;8.806;2022-09-09T00:46:05;4.20;;;1.60;;
2049;SDS011;8478;49.208;8.806;2022-09-09T01:12:07;2.83;;;1.57;;
2049;SDS011;8478;49.208;8.806;2022-09-09T01:14:43;3.33;;;2.00;;
2049;SDS011;8478;49.208;8.806;2022-09-09T01:17:26;2.50;;;1.60;;
2049;SDS011;8478;49.208;8.806;2022-09-09T01:28:09;2.47;;;1.80;;
2049;SDS011;8478;49.208;8.806;2022-09-09T01:30:41;2.70;;;1.93;;
2049;SDS011;8478;49.208;8.806;2022-09-09T01:33:07;2.43;;;1.60;;
2049;SDS011;8478;49.208;8.806;2022-09-09T01:35:52;2.60;;;1.90;;
2049;SDS011;8478;49.208;8.806;2022-09-09T01:38:31;1.77;;;1.63;;
2049;SDS011;8478;49.208;8.806;2022-09-09T01:40:59;2.07;;;1.83;;
2049;SDS011;8478;49.208;8.806;2022-09-09T01:43:26;1.73;;;1.63;;
2049;SDS011;8478;49.208;8.806;2022-09-09T01:45:53;2.10;;;1.60;;
2049;SDS011;8478;49.208;8.806;2022-09-09T01:48:21;1.90;;;1.77;;
2049;SDS011;8478;49.208;8.806;2022-09-09T01:50:48;2.37;;;2.17;;
2049;SDS011;8478;49.208;8.806;2022-09-09T01:53:14;3.93;;;1.97;;
2049;SDS011;8478;49.208;8.806;2022-09-09T01:55:44;4.83;;;2.20;;
2049;SDS011;8478;49.208;8.806;2022-09-09T01:58:43;1.90;;;1.70;;
2049;SDS011;8478;49.208;8.806;2022-09-09T02:04:01;2.20;;;1.70;;
2049;SDS011;8478;49.208;8.806;2022-09-09T02:06:35;2.43;;;1.83;;
2049;SDS011;8478;49.208;8.806;2022-09-09T02:09:05;3.77;;;2.10;;
2049;SDS011;8478;49.208;8.806;2022-09-09T02:11:35;1.83;;;1.60;;
2049;SDS011;8478;49.208;8.806;2022-09-09T02:14:46;2.07;;;1.80;;
2049;SDS011;8478;49.208;8.806;2022-09-09T02:19:34;3.17;;;2.00;;
2049;SDS011;8478;49.208;8.806;2022-09-09T02:22:11;4.40;;;1.70;;
2049;SDS011;8478;49.208;8.806;2022-09-09T02:24:37;2.00;;;1.67;;
2049;SDS011;8478;49.208;8.806;2022-09-09T02:27:06;2.53;;;2.20;;
2049;SDS011;8478;49.208;8.806;2022-09-09T02:29:38;4.43;;;1.80;;
2049;SDS011;8478;49.208;8.806;2022-09-09T02:32:11;2.07;;;1.70;;
2049;SDS011;8478;49.208;8.806;2022-09-09T02:34:45;2.07;;;1.90;;
2049;SDS011;8478;49.208;8.806;2022-09-09T02:37:15;2.13;;;1.83;;
2049;SDS011;8478;49.208;8.806;2022-09-09T02:39:46;3.90;;;1.73;;
2049;SDS011;8478;49.208;8.806;2022-09-09T02:42:13;1.90;;;1.50;;
2049;SDS011;8478;49.208;8.806;2022-09-09T02:44:39;2.60;;;1.90;;
2049;SDS011;8478;49.208;8.806;2022-09-09T02:50:08;2.20;;;1.80;;
2049;SDS011;8478;49.208;8.806;2022-09-09T02:53:06;2.90;;;1.80;;
2049;SDS011;8478;49.208;8.806;2022-09-09T02:55:46;7.47;;;2.10;;
2049;SDS011;8478;49.208;8.806;2022-09-09T02:58:13;1.90;;;1.67;;
2049;SDS011;8478;49.208;8.806;2022-09-09T03:00:47;2.53;;;1.90;;
2049;SDS011;8478;49.208;8.806;2022-09-09T03:03:15;4.00;;;1.90;;
2049;SDS011;8478;49.208;8.806;2022-09-09T03:05:43;5.70;;;1.47;;
2049;SDS011;8478;49.208;8.806;2022-09-09T03:08:09;1.87;;;1.60;;
2049;SDS011;8478;49.208;8.806;2022-09-09T03:10:35;1.70;;;1.53;;
2049;SDS011;8478;49.208;8.806;2022-09-09T03:13:02;2.93;;;1.73;;
2049;SDS011;8478;49.208;8.806;2022-09-09T03:15:29;2.37;;;1.40;;
2049;SDS011;8478;49.208;8.806;2022-09-09T03:17:56;3.70;;;1.47;;
2049;SDS011;8478;49.208;8.806;2022-09-09T03:20:26;1.57;;;1.40;;
2049;SDS011;8478;49.208;8.806;2022-09-09T03:22:53;1.90;;;1.50;;
2049;SDS011;8478;49.208;8.806;2022-09-09T03:25:19;2.00;;;1.63;;
2049;SDS011;8478;49.208;8.806;2022-09-09T03:27:45;2.83;;;1.40;;
2049;SDS011;8478;49.208;8.806;2022-09-09T03:30:11;2.60;;;1.70;;
2049;SDS011;8478;49.208;8.806;2022-09-09T03:32:36;2.27;;;1.40;;
2049;SDS011;8478;49.208;8.806;2022-09-09T03:35:03;1.87;;;1.53;;
2049;SDS011;8478;49.208;8.806;2022-09-09T03:37:29;1.30;;;1.20;;
2049;SDS011;8478;49.208;8.806;2022-09-09T03:39:54;2.30;;;1.50;;
2049;SDS011;8478;49.208;8.806;2022-09-09T03:42:20;1.80;;;1.50;;
2049;SDS011;8478;49.208;8.806;2022-09-09T03:44:47;1.97;;;1.50;;
2049;SDS011;8478;49.208;8.806;2022-09-09T03:47:15;2.07;;;1.20;;
2049;SDS011;8478;49.208;8.806;2022-09-09T03:49:44;1.40;;;1.30;;
2049;SDS011;8478;49.208;8.806;2022-09-09T03:52:10;2.00;;;1.20;;
2049;SDS011;8478;49.208;8.806;2022-09-09T03:54:36;1.67;;;1.30;;
2049;SDS011;8478;49.208;8.806;2022-09-09T03:57:02;1.70;;;1.30;;
2049;SDS011;8478;49.208;8.806;2022-09-09T03:59:29;1.87;;;1.20;;
2049;SDS011;8478;49.208;8.806;2022-09-09T04:01:55;2.77;;;1.20;;
2049;SDS011;8478;49.208;8.806;2022-09-09T04:04:22;1.60;;;1.40;;
2049;SDS011;8478;49.208;8.806;2022-09-09T04:06:47;2.10;;;1.43;;
2049;SDS011;8478;49.208;8.806;2022-09-09T04:09:14;2.80;;;1.30;;
2049;SDS011;8478;49.208;8.806;2022-09-09T04:11:39;2.43;;;1.20;;
2049;SDS011;8478;49.208;8.806;2022-09-09T04:14:05;1.40;;;1.30;;
2049;SDS011;8478;49.208;8.806;2022-09-09T04:16:32;1.60;;;1.30;;
2049;SDS011;8478;49.208;8.806;2022-09-09T04:18:58;1.50;;;1.40;;
2049;SDS011;8478;49.208;8.806;2022-09-09T04:21:25;2.90;;;1.40;;
2049;SDS011;8478;49.208;8.806;2022-09-09T04:23:51;2.13;;;1.47;;
2049;SDS011;8478;49.208;8.806;2022-09-09T04:26:17;1.67;;;1.30;;
2049;SDS011;8478;49.208;8.806;2022-09-09T04:28:43;1.20;;;1.10;;
2049;SDS011;8478;49.208;8.806;2022-09-09T04:31:18;1.77;;;1.30;;
2049;SDS011;8478;49.208;8.806;2022-09-09T04:33:48;1.30;;;1.20;;
2049;SDS011;8478;49.208;8.806;2022-09-09T04:36:14;1.30;;;1.20;;
2049;SDS011;8478;49.208;8.806;2022-09-09T04:38:40;1.70;;;1.40;;
2049;SDS011;8478;49.208;8.806;2022-09-09T04:41:06;1.43;;;1.33;;
2049;SDS011;8478;49.208;8.806;2022-09-09T04:43:32;1.77;;;1.20;;
2049;SDS011;8478;49.208;8.806;2022-09-09T04:45:59;2.90;;;0.90;;
2049;SDS011;8478;49.208;8.806;2022-09-09T04:48:25;2.23;;;1.30;;
2049;SDS011;8478;49.208;8.806;2022-09-09T04:50:57;1.67;;;1.30;;
2049;SDS011;8478;49.208;8.806;2022-09-09T04:53:24;1.60;;;1.50;;
2049;SDS011;8478;49.208;8.806;2022-09-09T04:55:50;1.20;;;1.10;;
2049;SDS011;8478;49.208;8.806;2022-09-09T04:58:17;1.63;;;1.20;;
2049;SDS011;8478;49.208;8.806;2022-09-09T05:00:43;2.27;;;1.53;;
2049;SDS011;8478;49.208;8.806;2022-09-09T05:03:09;1.33;;;1.10;;
2049;SDS011;8478;49.208;8.806;2022-09-09T05:05:35;1.50;;;1.20;;
2049;SDS011;8478;49.208;8.806;2022-09-09T05:08:04;2.63;;;1.50;;
2049;SDS011;8478;49.208;8.806;2022-09-09T05:10:32;2.97;;;1.23;;
2049;SDS011;8478;49.208;8.806;2022-09-09T05:12:58;2.40;;;1.40;;
2049;SDS011;8478;49.208;8.806;2022-09-09T05:15:24;2.40;;;1.37;;
2049;SDS011;8478;49.208;8.806;2022-09-09T05:17:50;2.37;;;1.57;;
2049;SDS011;8478;49.208;8.806;2022-09-09T05:20:17;1.50;;;1.40;;
2049;SDS011;8478;49.208;8.806;2022-09-09T05:22:43;2.10;;;1.20;;
2049;SDS011;8478;49.208;8.806;2022-09-09T05:25:09;2.00;;;1.70;;
2049;SDS011;8478;49.208;8.806;2022-09-09T05:27:34;2.17;;;1.30;;
2049;SDS011;8478;49.208;8.806;2022-09-09T05:30:00;1.73;;;1.40;;
2049;SDS011;8478;49.208;8.806;2022-09-09T05:32:26;1.47;;;1.37;;
2049;SDS011;8478;49.208;8.806;2022-09-09T05:34:52;1.50;;;1.40;;
2049;SDS011;8478;49.208;8.806;2022-09-09T05:37:17;3.30;;;1.60;;
2049;SDS011;8478;49.208;8.806;2022-09-09T05:39:43;2.33;;;1.30;;
2049;SDS011;8478;49.208;8.806;2022-09-09T05:42:09;1.50;;;1.30;;
2049;SDS011;8478;49.208;8.806;2022-09-09T05:44:35;1.80;;;1.20;;
2049;SDS011;8478;49.208;8.806;2022-09-09T05:47:00;1.37;;;1.20;;
2049;SDS011;8478;49.208;8.806;2022-09-09T05:49:26;1.57;;;1.20;;
2049;SDS011;8478;49.208;8.806;2022-09-09T05:51:52;2.03;;;1.10;;
2049;SDS011;8478;49.208;8.806;2022-09-09T05:54:18;1.90;;;1.57;;
2049;SDS011;8478;49.208;8.806;2022-09-09T05:56:44;1.73;;;1.63;;
2049;SDS011;8478;49.208;8.806;2022-09-09T05:59:09;2.20;;;1.37;;
2049;SDS011;8478;49.208;8.806;2022-09-09T06:01:36;2.57;;;1.50;;
2049;SDS011;8478;49.208;8.806;2022-09-09T06:04:05;1.40;;;1.10;;
2049;SDS011;8478;49.208;8.806;2022-09-09T06:06:32;1.63;;;1.37;;
2049;SDS011;8478;49.208;8.806;2022-09-09T06:09:02;1.83;;;1.60;;
2049;SDS011;8478;49.208;8.806;2022-09-09T06:11:31;2.10;;;1.70;;
2049;SDS011;8478;49.208;8.806;2022-09-09T06:14:01;2.73;;;1.30;;
2049;SDS011;8478;49.208;8.806;2022-09-09T06:16:27;3.53;;;1.50;;
2049;SDS011;8478;49.208;8.806;2022-09-09T06:18:54;1.73;;;1.40;;
2049;SDS011;8478;49.208;8.806;2022-09-09T06:21:25;1.50;;;1.40;;
2049;SDS011;8478;49.208;8.806;2022-09-09T06:23:55;1.53;;;1.20;;
2049;SDS011;8478;49.208;8.806;2022-09-09T06:26:24;2.33;;;1.30;;
2049;SDS011;8478;49.208;8.806;2022-09-09T06:28:53;2.10;;;1.43;;
2049;SDS011;8478;49.208;8.806;2022-09-09T06:31:21;2.30;;;1.37;;
2049;SDS011;8478;49.208;8.806;2022-09-09T06:33:51;2.03;;;1.43;;
2049;SDS011;8478;49.208;8.806;2022-09-09T06:36:19;1.63;;;1.30;;
2049;SDS011;8478;49.208;8.806;2022-09-09T06:38:47;3.37;;;1.20;;
2049;SDS011;8478;49.208;8.806;2022-09-09T06:41:14;2.50;;;1.57;;
2049;SDS011;8478;49.208;8.806;2022-09-09T06:43:41;2.20;;;1.50;;
2049;SDS011;8478;49.208;8.806;2022-09-09T06:46:17;2.23;;;1.33;;
2049;SDS011;8478;49.208;8.806;2022-09-09T06:48:44;2.50;;;1.60;;
2049;SDS011;8478;49.208;8.806;2022-09-09T06:51:17;1.60;;;1.23;;
2049;SDS011;8478;49.208;8.806;2022-09-09T06:53:46;1.97;;;1.47;;
2049;SDS011;8478;49.208;8.806;2022-09-09T06:58:53;1.90;;;1.23;;
2049;SDS011;8478;49.208;8.806;2022-09-09T07:01:24;3.47;;;1.60;;
2049;SDS011;8478;49.208;8.806;2022-09-09T07:03:52;3.17;;;2.10;;
2049;SDS011;8478;49.208;8.806;2022-09-09T07:06:23;1.53;;;1.30;;
2049;SDS011;8478;49.208;8.806;2022-09-09T07:08:51;2.80;;;1.30;;
2049;SDS011;8478;49.208;8.806;2022-09-09T07:11:19;2.90;;;1.40;;
2049;SDS011;8478;49.208;8.806;2022-09-09T07:13:45;2.93;;;1.50;;
2049;SDS011;8478;49.208;8.806;2022-09-09T07:16:13;2.70;;;1.87;;
2049;SDS011;8478;49.208;8.806;2022-09-09T07:18:43;2.13;;;1.50;;
2049;SDS011;8478;49.208;8.806;2022-09-09T07:21:10;2.13;;;1.30;;
2049;SDS011;8478;49.208;8.806;2022-09-09T07:23:37;2.60;;;1.53;;
2049;SDS011;8478;49.208;8.806;2022-09-09T07:26:07;2.87;;;1.70;;
2049;SDS011;8478;49.208;8.806;2022-09-09T07:28:38;1.60;;;1.50;;
2049;SDS011;8478;49.208;8.806;2022-09-09T07:31:04;4.47;;;1.90;;
2049;SDS011;8478;49.208;8.806;2022-09-09T07:33:32;2.33;;;1.60;;
2049;SDS011;8478;49.208;8.806;2022-09-09T07:36:03;2.43;;;1.80;;
2049;SDS011;8478;49.208;8.806;2022-09-09T07:38:37;3.00;;;1.80;;
2049;SDS011;8478;49.208;8.806;2022-09-09T07:41:05;3.37;;;1.93;;
2049;SDS011;8478;49.208;8.806;2022-09-09T07:43:33;3.80;;;1.90;;
2049;SDS011;8478;49.208;8.806;2022-09-09T07:45:59;2.70;;;1.80;;
2049;SDS011;8478;49.208;8.806;2022-09-09T07:48:28;4.13;;;1.63;;
2049;SDS011;8478;49.208;8.806;2022-09-09T07:51:03;6.10;;;2.00;;
2049;SDS011;8478;49.208;8.806;2022-09-09T07:53:34;5.60;;;1.50;;
2049;SDS011;8478;49.208;8.806;2022-09-09T07:56:08;3.53;;;1.97;;
2049;SDS011;8478;49.208;8.806;2022-09-09T07:58:36;2.00;;;1.60;;
2049;SDS011;8478;49.208;8.806;2022-09-09T08:01:07;2.90;;;1.80;;
2049;SDS011;8478;49.208;8.806;2022-09-09T08:03:33;3.20;;;1.80;;
2049;SDS011;8478;49.208;8.806;2022-09-09T08:06:00;2.37;;;2.07;;
2049;SDS011;8478;49.208;8.806;2022-09-09T08:08:27;4.00;;;2.00;;
2049;SDS011;8478;49.208;8.806;2022-09-09T08:10:53;3.80;;;2.30;;
2049;SDS011;8478;49.208;8.806;2022-09-09T08:13:18;4.57;;;2.07;;
2049;SDS011;8478;49.208;8.806;2022-09-09T08:15:44;4.30;;;2.07;;
2049;SDS011;8478;49.208;8.806;2022-09-09T08:18:10;3.23;;;1.77;;
2049;SDS011;8478;49.208;8.806;2022-09-09T08:20:36;2.87;;;2.07;;
2049;SDS011;8478;49.208;8.806;2022-09-09T08:23:02;4.10;;;2.00;;
2049;SDS011;8478;49.208;8.806;2022-09-09T08:25:29;3.03;;;1.80;;
2049;SDS011;8478;49.208;8.806;2022-09-09T08:27:55;6.63;;;2.27;;
2049;SDS011;8478;49.208;8.806;2022-09-09T08:30:21;2.63;;;1.73;;
2049;SDS011;8478;49.208;8.806;2022-09-09T08:32:46;4.33;;;2.20;;
2049;SDS011;8478;49.208;8.806;2022-09-09T08:35:13;4.50;;;2.23;;
2049;SDS011;8478;49.208;8.806;2022-09-09T08:37:39;3.13;;;2.07;;
2049;SDS011;8478;49.208;8.806;2022-09-09T08:40:05;2.90;;;1.83;;
2049;SDS011;8478;49.208;8.806;2022-09-09T08:42:47;4.77;;;1.63;;
2049;SDS011;8478;49.208;8.806;2022-09-09T08:47:56;2.90;;;1.67;;
2049;SDS011;8478;49.208;8.806;2022-09-09T08:50:34;3.43;;;1.70;;
2049;SDS011;8478;49.208;8.806;2022-09-09T08:53:04;4.10;;;2.00;;
2049;SDS011;8478;49.208;8.806;2022-09-09T08:55:35;3.30;;;1.80;;
2049;SDS011;8478;49.208;8.806;2022-09-09T08:58:20;2.00;;;1.63;;
2049;SDS011;8478;49.208;8.806;2022-09-09T09:03:28;3.23;;;1.77;;
2049;SDS011;8478;49.208;8.806;2022-09-09T09:08:28;2.80;;;1.70;;
2049;SDS011;8478;49.208;8.806;2022-09-09T09:10:56;4.00;;;1.97;;
2049;SDS011;8478;49.208;8.806;2022-09-09T09:15:55;2.10;;;1.90;;
2049;SDS011;8478;49.208;8.806;2022-09-09T09:18:25;4.53;;;1.60;;
2049;SDS011;8478;49.208;8.806;2022-09-09T09:23:31;2.03;;;1.83;;
2049;SDS011;8478;49.208;8.806;2022-09-09T09:26:10;2.53;;;1.70;;
2049;SDS011;8478;49.208;8.806;2022-09-09T09:28:42;2.93;;;1.73;;
2049;SDS011;8478;49.208;8.806;2022-09-09T09:31:11;6.10;;;2.30;;
2049;SDS011;8478;49.208;8.806;2022-09-09T09:33:49;4.73;;;2.70;;
2049;SDS011;8478;49.208;8.806;2022-09-09T09:36:18;2.73;;;2.00;;
2049;SDS011;8478;49.208;8.806;2022-09-09T09:38:52;2.60;;;1.70;;
2049;SDS011;8478;49.208;8.806;2022-09-09T09:46:49;3.23;;;1.63;;
2049;SDS011;8478;49.208;8.806;2022-09-09T09:49:15;3.20;;;1.80;;
2049;SDS011;8478;49.208;8.806;2022-09-09T09:51:42;8.50;;;2.17;;
2049;SDS011;8478;49.208;8.806;2022-09-09T09:56:43;4.43;;;2.27;;
2049;SDS011;8478;49.208;8.806;2022-09-09T09:59:19;2.10;;;1.60;;
2049;SDS011;8478;49.208;8.806;2022-09-09T10:01:54;2.87;;;1.20;;
2049;SDS011;8478;49.208;8.806;2022-09-09T10:04:31;2.00;;;1.80;;
2049;SDS011;8478;49.208;8.806;2022-09-09T10:06:58;5.33;;;1.97;;
2049;SDS011;8478;49.208;8.806;2022-09-09T10:09:34;5.47;;;2.10;;
2049;SDS011;8478;49.208;8.806;2022-09-09T10:17:59;4.07;;;1.80;;
2049;SDS011;8478;49.208;8.806;2022-09-09T10:23:25;5.63;;;1.73;;
2049;SDS011;8478;49.208;8.806;2022-09-09T10:26:26;3.17;;;1.47;;
2049;SDS011;8478;49.208;8.806;2022-09-09T10:31:52;2.20;;;1.40;;
2049;SDS011;8478;49.208;8.806;2022-09-09T10:35:02;3.00;;;1.50;;
2049;SDS011;8478;49.208;8.806;2022-09-09T10:37:54;3.13;;;1.60;;
2049;SDS011;8478;49.208;8.806;2022-09-09T10:43:06;3.67;;;1.87;;
2049;SDS011;8478;49.208;8.806;2022-09-09T10:51:50;2.27;;;1.80;;
2049;SDS011;8478;49.208;8.806;2022-09-09T10:59:57;2.10;;;1.73;;
2049;SDS011;8478;49.208;8.806;2022-09-09T11:02:29;3.90;;;1.90;;
2049;SDS011;8478;49.208;8.806;2022-09-09T11:07:48;5.22;;;1.60;;
2049;SDS011;8478;49.208;8.806;2022-09-09T11:12:49;8.67;;;2.53;;
2049;SDS011;8478;49.208;8.806;2022-09-09T11:15:29;4.37;;;2.60;;
2049;SDS011;8478;49.208;8.806;2022-09-09T11:18:06;3.67;;;1.60;;
2049;SDS011;8478;49.208;8.806;2022-09-09T11:20:38;3.00;;;1.53;;
2049;SDS011;8478;49.208;8.806;2022-09-09T11:23:06;4.10;;;1.60;;
2049;SDS011;8478;49.208;8.806;2022-09-09T11:25:56;4.60;;;1.70;;
2049;SDS011;8478;49.208;8.806;2022-09-09T11:29:12;2.30;;;1.60;;
2049;SDS011;8478;49.208;8.806;2022-09-09T11:34:31;3.30;;;1.90;;
2049;SDS011;8478;49.208;8.806;2022-09-09T11:39:58;4.10;;;1.57;;
2049;SDS011;8478;49.208;8.806;2022-09-09T11:42:30;2.87;;;1.80;;
2049;SDS011;8478;49.208;8.806;2022-09-09T11:44:55;3.73;;;1.80;;
2049;SDS011;8478;49.208;8.806;2022-09-09T11:47:23;2.97;;;1.70;;
2049;SDS011;8478;49.208;8.806;2022-09-09T11:52:41;2.33;;;1.80;;
2049;SDS011;8478;49.208;8.806;2022-09-09T11:58:01;2.30;;;1.40;;
2049;SDS011;8478;49.208;8.806;2022-09-09T12:00:47;2.80;;;1.60;;
2049;SDS011;8478;49.208;8.806;2022-09-09T12:06:11;3.40;;;1.63;;
2049;SDS011;8478;49.208;8.806;2022-09-09T12:08:57;2.63;;;1.40;;
2049;SDS011;8478;49.208;8.806;2022-09-09T12:11:32;3.40;;;1.40;;
2049;SDS011;8478;49.208;8.806;2022-09-09T12:13:58;2.27;;;2.00;;
2049;SDS011;8478;49.208;8.806;2022-09-09T12:16:29;4.07;;;1.63;;
2049;SDS011;8478;49.208;8.806;2022-09-09T12:19:03;4.10;;;2.10;;
2049;SDS011;8478;49.208;8.806;2022-09-09T12:29:55;3.77;;;1.70;;
2049;SDS011;8478;49.208;8.806;2022-09-09T12:32:24;3.67;;;1.33;;
2049;SDS011;8478;49.208;8.806;2022-09-09T12:37:37;2.40;;;1.43;;
2049;SDS011;8478;49.208;8.806;2022-09-09T12:42:44;2.53;;;1.67;;
2049;SDS011;8478;49.208;8.806;2022-09-09T12:45:16;2.13;;;1.63;;
2049;SDS011;8478;49.208;8.806;2022-09-09T12:50:19;3.30;;;1.63;;
2049;SDS011;8478;49.208;8.806;2022-09-09T12:52:48;2.10;;;1.90;;
2049;SDS011;8478;49.208;8.806;2022-09-09T12:55:17;2.97;;;1.70;;
2049;SDS011;8478;49.208;8.806;2022-09-09T12:57:46;2.10;;;1.83;;
2049;SDS011;8478;49.208;8.806;2022-09-09T13:00:16;2.27;;;1.47;;
2049;SDS011;8478;49.208;8.806;2022-09-09T13:02:52;2.27;;;1.70;;
2049;SDS011;8478;49.208;8.806;2022-09-09T13:05:24;3.70;;;2.17;;
2049;SDS011;8478;49.208;8.806;2022-09-09T13:08:05;4.17;;;2.07;;
2049;SDS011;8478;49.208;8.806;2022-09-09T13:10:34;1.60;;;1.50;;
2049;SDS011;8478;49.208;8.806;2022-09-09T13:13:03;2.13;;;1.80;;
2049;SDS011;8478;49.208;8.806;2022-09-09T13:15:38;2.90;;;1.60;;
2049;SDS011;8478;49.208;8.806;2022-09-09T13:18:05;3.27;;;1.77;;
2049;SDS011;8478;49.208;8.806;2022-09-09T13:20:36;2.50;;;1.93;;
2049;SDS011;8478;49.208;8.806;2022-09-09T13:23:02;2.10;;;1.90;;
2049;SDS011;8478;49.208;8.806;2022-09-09T13:25:28;4.30;;;2.20;;
2049;SDS011;8478;49.208;8.806;2022-09-09T13:28:04;2.57;;;1.90;;
2049;SDS011;8478;49.208;8.806;2022-09-09T13:30:43;3.73;;;1.53;;
2049;SDS011;8478;49.208;8.806;2022-09-09T13:33:43;2.70;;;1.63;;
2049;SDS011;8478;49.208;8.806;2022-09-09T13:36:09;3.40;;;2.03;;
2049;SDS011;8478;49.208;8.806;2022-09-09T13:41:20;4.83;;;1.50;;
2049;SDS011;8478;49.208;8.806;2022-09-09T13:43:48;3.73;;;2.07;;
2049;SDS011;8478;49.208;8.806;2022-09-09T13:51:39;3.33;;;2.00;;
2049;SDS011;8478;49.208;8.806;2022-09-09T13:54:06;3.80;;;2.00;;
2049;SDS011;8478;49.208;8.806;2022-09-09T13:56:34;2.70;;;1.63;;
2049;SDS011;8478;49.208;8.806;2022-09-09T13:59:00;5.30;;;2.10;;
2049;SDS011;8478;49.208;8.806;2022-09-09T14:01:26;3.80;;;1.50;;
2049;SDS011;8478;49.208;8.806;2022-09-09T14:03:53;1.70;;;1.60;;
2049;SDS011;8478;49.208;8.806;2022-09-09T14:06:19;2.33;;;1.70;;
2049;SDS011;8478;49.208;8.806;2022-09-09T14:08:46;2.60;;;1.70;;
2049;SDS011;8478;49.208;8.806;2022-09-09T14:11:13;1.80;;;1.50;;
2049;SDS011;8478;49.208;8.806;2022-09-09T14:13:39;2.73;;;1.63;;
2049;SDS011;8478;49.208;8.806;2022-09-09T14:16:05;1.47;;;1.10;;
2049;SDS011;8478;49.208;8.806;2022-09-09T14:18:31;1.73;;;1.40;;
2049;SDS011;8478;49.208;8.806;2022-09-09T14:20:57;2.10;;;1.27;;
2049;SDS011;8478;49.208;8.806;2022-09-09T14:23:23;1.70;;;1.53;;
2049;SDS011;8478;49.208;8.806;2022-09-09T14:25:49;2.00;;;1.33;;
2049;SDS011;8478;49.208;8.806;2022-09-09T14:28:16;2.67;;;1.63;;
2049;SDS011;8478;49.208;8.806;2022-09-09T14:30:43;1.90;;;1.30;;
2049;SDS011;8478;49.208;8.806;2022-09-09T14:33:13;3.03;;;1.60;;
2049;SDS011;8478;49.208;8.806;2022-09-09T14:35:40;2.37;;;1.57;;
2049;SDS011;8478;49.208;8.806;2022-09-09T14:38:08;2.07;;;1.30;;
2049;SDS011;8478;49.208;8.806;2022-09-09T14:40:34;1.93;;;1.53;;
2049;SDS011;8478;49.208;8.806;2022-09-09T14:43:00;1.77;;;1.40;;
2049;SDS011;8478;49.208;8.806;2022-09-09T14:45:27;1.83;;;1.40;;
2049;SDS011;8478;49.208;8.806;2022-09-09T14:47:53;2.30;;;1.40;;
2049;SDS011;8478;49.208;8.806;2022-09-09T14:50:19;2.20;;;1.40;;
2049;SDS011;8478;49.208;8.806;2022-09-09T14:52:45;1.90;;;1.50;;
2049;SDS011;8478;49.208;8.806;2022-09-09T14:55:11;2.80;;;2.17;;
2049;SDS011;8478;49.208;8.806;2022-09-09T14:57:37;4.03;;;2.80;;
2049;SDS011;8478;49.208;8.806;2022-09-09T15:00:05;3.80;;;3.40;;
2049;SDS011;8478;49.208;8.806;2022-09-09T15:02:32;3.90;;;3.50;;
2049;SDS011;8478;49.208;8.806;2022-09-09T15:04:58;3.90;;;3.00;;
2049;SDS011;8478;49.208;8.806;2022-09-09T15:07:24;3.47;;;3.17;;
2049;SDS011;8478;49.208;8.806;2022-09-09T15:09:50;2.77;;;2.57;;
2049;SDS011;8478;49.208;8.806;2022-09-09T15:12:16;3.47;;;2.10;;
2049;SDS011;8478;49.208;8.806;2022-09-09T15:14:44;2.07;;;1.87;;
2049;SDS011;8478;49.208;8.806;2022-09-09T15:17:10;3.50;;;2.07;;
2049;SDS011;8478;49.208;8.806;2022-09-09T15:19:37;2.43;;;2.23;;
2049;SDS011;8478;49.208;8.806;2022-09-09T15:22:03;3.53;;;2.03;;
2049;SDS011;8478;49.208;8.806;2022-09-09T15:24:32;2.27;;;2.07;;
2049;SDS011;8478;49.208;8.806;2022-09-09T15:26:58;2.40;;;2.20;;
2049;SDS011;8478;49.208;8.806;2022-09-09T15:29:24;2.40;;;2.10;;
2049;SDS011;8478;49.208;8.806;2022-09-09T15:31:50;1.73;;;1.63;;
2049;SDS011;8478;49.208;8.806;2022-09-09T15:34:16;2.60;;;2.23;;
2049;SDS011;8478;49.208;8.806;2022-09-09T15:36:43;2.72;;;1.75;;
2049;SDS011;8478;49.208;8.806;2022-09-09T15:39:11;2.93;;;2.03;;
2049;SDS011;8478;49.208;8.806;2022-09-09T15:41:40;2.93;;;2.30;;
2049;SDS011;8478;49.208;8.806;2022-09-09T15:44:07;2.93;;;1.80;;
2049;SDS011;8478;49.208;8.806;2022-09-09T15:46:39;4.03;;;2.20;;
2049;SDS011;8478;49.208;8.806;2022-09-09T15:49:16;3.13;;;1.80;;
2049;SDS011;8478;49.208;8.806;2022-09-09T15:51:44;2.80;;;1.70;;
2049;SDS011;8478;49.208;8.806;2022-09-09T15:54:12;4.67;;;1.80;;
2049;SDS011;8478;49.208;8.806;2022-09-09T15:56:39;1.83;;;1.70;;
2049;SDS011;8478;49.208;8.806;2022-09-09T15:59:05;2.17;;;1.50;;
2049;SDS011;8478;49.208;8.806;2022-09-09T16:01:31;6.63;;;2.10;;
2049;SDS011;8478;49.208;8.806;2022-09-09T16:03:57;2.50;;;1.70;;
2049;SDS011;8478;49.208;8.806;2022-09-09T16:06:25;2.00;;;1.60;;
2049;SDS011;8478;49.208;8.806;2022-09-09T16:08:53;1.97;;;1.33;;
2049;SDS011;8478;49.208;8.806;2022-09-09T16:11:25;1.83;;;1.73;;
2049;SDS011;8478;49.208;8.806;2022-09-09T16:14:01;1.60;;;1.40;;
2049;SDS011;8478;49.208;8.806;2022-09-09T16:16:28;1.60;;;1.50;;
2049;SDS011;8478;49.208;8.806;2022-09-09T16:18:59;1.70;;;1.40;;
2049;SDS011;8478;49.208;8.806;2022-09-09T16:21:29;1.30;;;1.20;;
2049;SDS011;8478;49.208;8.806;2022-09-09T16:23:56;3.10;;;1.27;;
2049;SDS011;8478;49.208;8.806;2022-09-09T16:26:26;1.93;;;1.40;;
2049;SDS011;8478;49.208;8.806;2022-09-09T16:28:52;3.10;;;1.70;;
2049;SDS011;8478;49.208;8.806;2022-09-09T16:31:20;3.03;;;1.47;;
2049;SDS011;8478;49.208;8.806;2022-09-09T16:33:47;2.27;;;1.50;;
2049;SDS011;8478;49.208;8.806;2022-09-09T16:36:16;1.33;;;1.20;;
2049;SDS011;8478;49.208;8.806;2022-09-09T16:38:45;2.73;;;1.50;;
2049;SDS011;8478;49.208;8.806;2022-09-09T16:41:11;1.50;;;1.30;;
2049;SDS011;8478;49.208;8.806;2022-09-09T16:43:38;1.73;;;1.30;;
2049;SDS011;8478;49.208;8.806;2022-09-09T16:46:15;2.93;;;1.50;;
2049;SDS011;8478;49.208;8.806;2022-09-09T16:48:43;1.60;;;1.30;;
2049;SDS011;8478;49.208;8.806;2022-09-09T16:51:23;4.90;;;1.50;;
2049;SDS011;8478;49.208;8.806;2022-09-09T16:53:50;1.57;;;1.37;;
2049;SDS011;8478;49.208;8.806;2022-09-09T16:56:18;2.20;;;1.87;;
2049;SDS011;8478;49.208;8.806;2022-09-09T16:58:53;2.20;;;1.70;;
2049;SDS011;8478;49.208;8.806;2022-09-09T17:01:21;2.80;;;1.70;;
2049;SDS011;8478;49.208;8.806;2022-09-09T17:03:47;2.20;;;1.70;;
2049;SDS011;8478;49.208;8.806;2022-09-09T17:06:16;2.90;;;1.70;;
2049;SDS011;8478;49.208;8.806;2022-09-09T17:08:42;1.77;;;1.50;;
2049;SDS011;8478;49.208;8.806;2022-09-09T17:11:11;2.27;;;1.50;;
2049;SDS011;8478;49.208;8.806;2022-09-09T17:13:41;2.03;;;1.80;;
2049;SDS011;8478;49.208;8.806;2022-09-09T17:16:08;1.60;;;1.50;;
2049;SDS011;8478;49.208;8.806;2022-09-09T17:18:34;3.30;;;1.90;;
2049;SDS011;8478;49.208;8.806;2022-09-09T17:21:04;1.50;;;1.33;;
2049;SDS011;8478;49.208;8.806;2022-09-09T17:23:32;2.30;;;1.30;;
2049;SDS011;8478;49.208;8.806;2022-09-09T17:25:59;2.13;;;1.50;;
2049;SDS011;8478;49.208;8.806;2022-09-09T17:28:25;1.50;;;1.40;;
2049;SDS011;8478;49.208;8.806;2022-09-09T17:30:56;2.07;;;1.60;;
2049;SDS011;8478;49.208;8.806;2022-09-09T17:33:25;4.03;;;1.53;;
2049;SDS011;8478;49.208;8.806;2022-09-09T17:35:52;1.77;;;1.40;;
2049;SDS011;8478;49.208;8.806;2022-09-09T17:38:18;2.43;;;1.60;;
2049;SDS011;8478;49.208;8.806;2022-09-09T17:40:43;2.93;;;1.50;;
2049;SDS011;8478;49.208;8.806;2022-09-09T17:43:09;2.43;;;1.53;;
2049;SDS011;8478;49.208;8.806;2022-09-09T17:45:35;2.73;;;1.80;;
2049;SDS011;8478;49.208;8.806;2022-09-09T17:48:01;2.27;;;1.63;;
2049;SDS011;8478;49.208;8.806;2022-09-09T17:50:27;1.37;;;1.23;;
2049;SDS011;8478;49.208;8.806;2022-09-09T17:52:53;4.30;;;1.57;;
2049;SDS011;8478;49.208;8.806;2022-09-09T17:55:20;1.83;;;1.33;;